Enco — CA3222 — position and weather

sailwx.info

Track history (hours):
 
Tides and Currents Weather Stations Pressure Air Temp Water Temp Dewpoint Dewpoint Depression Visibility Wind Speed Wind Dir Waves Ship Positions

Enco

Last reported at 2017-Nov-24 16:34 UTC. Time now 2017-Nov-25 01:59 UTC.
Position S 32°47' W 071°31'.

Length 32 m; draft 5.4 m.

Type: Tug. MMSI: 725000785.

Date/timePositionNaut miles runAvg speedWind from/ knotsBaromVisibWave heightAir tempDewpointWater temp
2017-Nov-24 16:34S 32°47' W 071°31'0 2.6
2017-Nov-24 16:31S 32°46' W 071°31'1 0.9
2017-Nov-24 15:47S 32°46' W 071°30'1 0.3
2017-Nov-24 14:04S 32°46' W 071°31'0 0.5
2017-Nov-24 13:35S 32°47' W 071°31'0 0.1
2017-Nov-24 13:30S 32°47' W 071°31'0 0.0
2017-Nov-24 12:57S 32°47' W 071°31'0 0.0
2017-Nov-24 02:29S 32°47' W 071°31'0 0.0
2017-Nov-23 19:13S 32°47' W 071°32'0 0.0
2017-Nov-23 18:59S 32°47' W 071°32'0 0.0
2017-Nov-23 18:22S 32°47' W 071°32'0 0.0
2017-Nov-23 17:51S 32°47' W 071°32'0 0.0
2017-Nov-23 17:29S 32°47' W 071°32'0 0.0
2017-Nov-23 17:00S 32°47' W 071°32'0 0.0
2017-Nov-23 16:30S 32°47' W 071°32'0 0.0
2017-Nov-23 16:00S 32°47' W 071°32'  
2017-Nov-20 00:30S 32°47' W 071°31'4 0.9
2017-Nov-19 20:37S 32°49' W 071°34'210.0
2017-Nov-19 20:27S 32°51' W 071°34'4 9.9
2017-Nov-19 20:01S 32°55' W 071°36'510.0
2017-Nov-19 19:30S 33°00' W 071°37'2 4.6
2017-Nov-19 19:00S 33°02' W 071°37'0 0.0
2017-Nov-19 18:31S 33°02' W 071°37'0 0.0
2017-Nov-19 18:00S 33°02' W 071°37'0 0.0
2017-Nov-19 17:27S 33°02' W 071°37'0 0.0
2017-Nov-19 16:55S 33°02' W 071°37'0 0.0
2017-Nov-19 16:30S 33°02' W 071°37'0 0.0
2017-Nov-19 16:00S 33°02' W 071°37'0 0.0
2017-Nov-19 15:30S 33°02' W 071°37'0 0.0
2017-Nov-19 14:58S 33°02' W 071°37'0 0.0
2017-Nov-19 14:29S 33°02' W 071°37'0 0.0
2017-Nov-19 13:56S 33°02' W 071°37'0 0.0
2017-Nov-19 13:23S 33°02' W 071°37'0 0.0
2017-Nov-19 13:01S 33°02' W 071°37'0 0.0
2017-Nov-19 11:21S 33°02' W 071°37'0 0.0
2017-Nov-19 11:00S 33°02' W 071°37'0 0.9
2017-Nov-19 10:30S 33°02' W 071°37'0 0.3
2017-Nov-19 08:57S 33°02' W 071°37'0 0.0
2017-Nov-19 08:11S 33°02' W 071°37'0 0.0
2017-Nov-19 07:50S 33°02' W 071°37'0 0.0
2017-Nov-19 07:30S 33°02' W 071°37'0 0.0
2017-Nov-19 06:59S 33°02' W 071°37'0 0.0
2017-Nov-19 06:30S 33°02' W 071°37'0 0.0
2017-Nov-19 06:00S 33°02' W 071°37'0 0.0
2017-Nov-19 05:22S 33°02' W 071°37'0 0.0
2017-Nov-19 04:42S 33°02' W 071°37'0 0.0
2017-Nov-19 04:23S 33°02' W 071°37'0 0.0
2017-Nov-19 03:53S 33°02' W 071°37'0 0.0
2017-Nov-19 03:29S 33°02' W 071°37'0 0.0
2017-Nov-19 02:24S 33°02' W 071°37'0 0.0
2017-Nov-19 01:59S 33°02' W 071°37'0 0.0
2017-Nov-19 01:29S 33°02' W 071°37'0 0.0
2017-Nov-18 23:35S 33°02' W 071°37'0 0.0
2017-Nov-18 23:28S 33°02' W 071°37'0 0.0
2017-Nov-18 23:01S 33°02' W 071°37'0 0.0
2017-Nov-18 22:31S 33°02' W 071°37'0 0.0
2017-Nov-18 22:00S 33°02' W 071°37'0 0.0
2017-Nov-18 21:31S 33°02' W 071°37'0 0.0
2017-Nov-18 21:01S 33°02' W 071°37'0 0.0
2017-Nov-18 20:30S 33°02' W 071°37'0 0.0
2017-Nov-18 20:00S 33°02' W 071°37'0 0.0
2017-Nov-18 19:31S 33°02' W 071°37'0 0.0
2017-Nov-18 19:01S 33°02' W 071°37'0 0.0
2017-Nov-18 18:30S 33°02' W 071°37'0 0.0
2017-Nov-18 18:00S 33°02' W 071°37'0 0.0
2017-Nov-18 17:31S 33°02' W 071°37'0 0.0
2017-Nov-18 17:00S 33°02' W 071°37'0 0.0
2017-Nov-18 16:30S 33°02' W 071°37'0 0.0
2017-Nov-18 16:00S 33°02' W 071°37'0 0.0
2017-Nov-18 15:30S 33°02' W 071°37'0 0.0
2017-Nov-18 15:00S 33°02' W 071°37'0 0.0
2017-Nov-18 14:29S 33°02' W 071°37'0 0.0
2017-Nov-18 14:01S 33°02' W 071°37'0 0.0
2017-Nov-18 13:29S 33°02' W 071°37'0 0.0
2017-Nov-18 13:00S 33°02' W 071°37'0 0.0
2017-Nov-18 12:31S 33°02' W 071°37'0 0.0
2017-Nov-18 12:01S 33°02' W 071°37'0 0.0
2017-Nov-18 11:29S 33°02' W 071°37'0 0.0
2017-Nov-18 10:59S 33°02' W 071°37'0 0.0
2017-Nov-18 10:28S 33°02' W 071°37'0 0.3
2017-Nov-18 09:25S 33°02' W 071°37'0 0.8
2017-Nov-18 08:58S 33°02' W 071°37'0 0.0
2017-Nov-18 08:29S 33°02' W 071°37'0 0.0
2017-Nov-18 07:56S 33°02' W 071°37'0 0.0
2017-Nov-18 07:23S 33°02' W 071°37'0 0.0
2017-Nov-18 06:23S 33°02' W 071°37'0 0.0
2017-Nov-18 06:00S 33°02' W 071°37'0 0.0
2017-Nov-18 04:46S 33°02' W 071°37'0 0.0
2017-Nov-18 04:26S 33°02' W 071°37'0 0.0
2017-Nov-18 04:01S 33°02' W 071°37'0 0.0
2017-Nov-18 03:31S 33°02' W 071°37'0 0.0
2017-Nov-18 02:58S 33°02' W 071°37'0 0.0
2017-Nov-18 02:29S 33°02' W 071°37'0 0.0
2017-Nov-18 02:00S 33°02' W 071°37'0 0.0
2017-Nov-18 01:28S 33°02' W 071°37'0 0.0
2017-Nov-17 23:36S 33°02' W 071°37'0 0.1
2017-Nov-17 23:30S 33°02' W 071°37'0 0.0
2017-Nov-17 23:01S 33°02' W 071°37'0 0.0
2017-Nov-17 22:30S 33°02' W 071°37'0 0.0
2017-Nov-17 22:00S 33°02' W 071°37'0 0.0
2017-Nov-17 21:30S 33°02' W 071°37'0 0.0
2017-Nov-17 21:00S 33°02' W 071°37'0 0.0
2017-Nov-17 20:30S 33°02' W 071°37'0 0.0
2017-Nov-17 20:00S 33°02' W 071°37'0 0.0
2017-Nov-17 19:30S 33°02' W 071°37'0 0.0
2017-Nov-17 18:04S 33°02' W 071°37'0 0.1
2017-Nov-17 18:00S 33°02' W 071°37'0 0.0
2017-Nov-17 16:34S 33°02' W 071°37'0 0.2
2017-Nov-17 16:30S 33°02' W 071°37'0 0.0
2017-Nov-17 15:47S 33°02' W 071°37'0 0.0
2017-Nov-17 15:17S 33°02' W 071°37'0 0.0
2017-Nov-17 14:21S 33°02' W 071°37'0 0.0
2017-Nov-17 13:58S 33°02' W 071°37'0 0.0
2017-Nov-17 13:29S 33°02' W 071°37'0 0.0
2017-Nov-17 12:57S 33°02' W 071°37'0 0.0
2017-Nov-17 07:55S 33°02' W 071°37'0 0.0
2017-Nov-17 07:26S 33°02' W 071°37'0 0.0
2017-Nov-17 02:56S 33°02' W 071°37'0 0.0
2017-Nov-17 02:20S 33°02' W 071°37'4 4.8
2017-Nov-17 01:34S 32°59' W 071°36'1 9.6
2017-Nov-17 01:27S 32°58' W 071°36'4 9.4
2017-Nov-17 01:01S 32°54' W 071°36'5 9.1
2017-Nov-17 00:31S 32°49' W 071°36'5 8.9
2017-Nov-16 23:58S 32°44' W 071°36'  
Track history (hours):
 
Tides and Currents Weather Stations Pressure Air Temp Water Temp Dewpoint Dewpoint Depression Visibility Wind Speed Wind Dir Waves Ship Positions

Enco

Last reported at 2017-Nov-24 16:34 UTC. Time now 2017-Nov-25 01:59 UTC.
Position S 32°47' W 071°31'.

Length 32 m; draft 5.4 m.

Type: Tug. MMSI: 725000785.

Date/timePositionNaut miles runAvg speedWind from/ knotsBaromVisibWave heightAir tempDewpointWater temp
2017-Nov-24 16:34S 32°47' W 071°31'0 2.6
2017-Nov-24 16:31S 32°46' W 071°31'1 0.9
2017-Nov-24 15:47S 32°46' W 071°30'1 0.3
2017-Nov-24 14:04S 32°46' W 071°31'0 0.5
2017-Nov-24 13:35S 32°47' W 071°31'0 0.1
2017-Nov-24 13:30S 32°47' W 071°31'0 0.0
2017-Nov-24 12:57S 32°47' W 071°31'0 0.0
2017-Nov-24 02:29S 32°47' W 071°31'0 0.0
2017-Nov-23 19:13S 32°47' W 071°32'0 0.0
2017-Nov-23 18:59S 32°47' W 071°32'0 0.0
2017-Nov-23 18:22S 32°47' W 071°32'0 0.0
2017-Nov-23 17:51S 32°47' W 071°32'0 0.0
2017-Nov-23 17:29S 32°47' W 071°32'0 0.0
2017-Nov-23 17:00S 32°47' W 071°32'0 0.0
2017-Nov-23 16:30S 32°47' W 071°32'0 0.0
2017-Nov-23 16:00S 32°47' W 071°32'  
2017-Nov-20 00:30S 32°47' W 071°31'4 0.9
2017-Nov-19 20:37S 32°49' W 071°34'210.0
2017-Nov-19 20:27S 32°51' W 071°34'4 9.9
2017-Nov-19 20:01S 32°55' W 071°36'510.0
2017-Nov-19 19:30S 33°00' W 071°37'2 4.6
2017-Nov-19 19:00S 33°02' W 071°37'0 0.0
2017-Nov-19 18:31S 33°02' W 071°37'0 0.0
2017-Nov-19 18:00S 33°02' W 071°37'0 0.0
2017-Nov-19 17:27S 33°02' W 071°37'0 0.0
2017-Nov-19 16:55S 33°02' W 071°37'0 0.0
2017-Nov-19 16:30S 33°02' W 071°37'0 0.0
2017-Nov-19 16:00S 33°02' W 071°37'0 0.0
2017-Nov-19 15:30S 33°02' W 071°37'0 0.0
2017-Nov-19 14:58S 33°02' W 071°37'0 0.0
2017-Nov-19 14:29S 33°02' W 071°37'0 0.0
2017-Nov-19 13:56S 33°02' W 071°37'0 0.0
2017-Nov-19 13:23S 33°02' W 071°37'0 0.0
2017-Nov-19 13:01S 33°02' W 071°37'0 0.0
2017-Nov-19 11:21S 33°02' W 071°37'0 0.0
2017-Nov-19 11:00S 33°02' W 071°37'0 0.9
2017-Nov-19 10:30S 33°02' W 071°37'0 0.3
2017-Nov-19 08:57S 33°02' W 071°37'0 0.0
2017-Nov-19 08:11S 33°02' W 071°37'0 0.0
2017-Nov-19 07:50S 33°02' W 071°37'0 0.0
2017-Nov-19 07:30S 33°02' W 071°37'0 0.0
2017-Nov-19 06:59S 33°02' W 071°37'0 0.0
2017-Nov-19 06:30S 33°02' W 071°37'0 0.0
2017-Nov-19 06:00S 33°02' W 071°37'0 0.0
2017-Nov-19 05:22S 33°02' W 071°37'0 0.0
2017-Nov-19 04:42S 33°02' W 071°37'0 0.0
2017-Nov-19 04:23S 33°02' W 071°37'0 0.0
2017-Nov-19 03:53S 33°02' W 071°37'0 0.0
2017-Nov-19 03:29S 33°02' W 071°37'0 0.0
2017-Nov-19 02:24S 33°02' W 071°37'0 0.0
2017-Nov-19 01:59S 33°02' W 071°37'0 0.0
2017-Nov-19 01:29S 33°02' W 071°37'0 0.0
2017-Nov-18 23:35S 33°02' W 071°37'0 0.0
2017-Nov-18 23:28S 33°02' W 071°37'0 0.0
2017-Nov-18 23:01S 33°02' W 071°37'0 0.0
2017-Nov-18 22:31S 33°02' W 071°37'0 0.0
2017-Nov-18 22:00S 33°02' W 071°37'0 0.0
2017-Nov-18 21:31S 33°02' W 071°37'0 0.0
2017-Nov-18 21:01S 33°02' W 071°37'0 0.0
2017-Nov-18 20:30S 33°02' W 071°37'0 0.0
2017-Nov-18 20:00S 33°02' W 071°37'0 0.0
2017-Nov-18 19:31S 33°02' W 071°37'0 0.0
2017-Nov-18 19:01S 33°02' W 071°37'0 0.0
2017-Nov-18 18:30S 33°02' W 071°37'0 0.0
2017-Nov-18 18:00S 33°02' W 071°37'0 0.0
2017-Nov-18 17:31S 33°02' W 071°37'0 0.0
2017-Nov-18 17:00S 33°02' W 071°37'0 0.0
2017-Nov-18 16:30S 33°02' W 071°37'0 0.0
2017-Nov-18 16:00S 33°02' W 071°37'0 0.0
2017-Nov-18 15:30S 33°02' W 071°37'0 0.0
2017-Nov-18 15:00S 33°02' W 071°37'0 0.0
2017-Nov-18 14:29S 33°02' W 071°37'0 0.0
2017-Nov-18 14:01S 33°02' W 071°37'0 0.0
2017-Nov-18 13:29S 33°02' W 071°37'0 0.0
2017-Nov-18 13:00S 33°02' W 071°37'0 0.0
2017-Nov-18 12:31S 33°02' W 071°37'0 0.0
2017-Nov-18 12:01S 33°02' W 071°37'0 0.0
2017-Nov-18 11:29S 33°02' W 071°37'0 0.0
2017-Nov-18 10:59S 33°02' W 071°37'0 0.0
2017-Nov-18 10:28S 33°02' W 071°37'0 0.3
2017-Nov-18 09:25S 33°02' W 071°37'0 0.8
2017-Nov-18 08:58S 33°02' W 071°37'0 0.0
2017-Nov-18 08:29S 33°02' W 071°37'0 0.0
2017-Nov-18 07:56S 33°02' W 071°37'0 0.0
2017-Nov-18 07:23S 33°02' W 071°37'0 0.0
2017-Nov-18 06:23S 33°02' W 071°37'0 0.0
2017-Nov-18 06:00S 33°02' W 071°37'0 0.0
2017-Nov-18 04:46S 33°02' W 071°37'0 0.0
2017-Nov-18 04:26S 33°02' W 071°37'0 0.0
2017-Nov-18 04:01S 33°02' W 071°37'0 0.0
2017-Nov-18 03:31S 33°02' W 071°37'0 0.0
2017-Nov-18 02:58S 33°02' W 071°37'0 0.0
2017-Nov-18 02:29S 33°02' W 071°37'0 0.0
2017-Nov-18 02:00S 33°02' W 071°37'0 0.0
2017-Nov-18 01:28S 33°02' W 071°37'0 0.0
2017-Nov-17 23:36S 33°02' W 071°37'0 0.1
2017-Nov-17 23:30S 33°02' W 071°37'0 0.0
2017-Nov-17 23:01S 33°02' W 071°37'0 0.0
2017-Nov-17 22:30S 33°02' W 071°37'0 0.0
2017-Nov-17 22:00S 33°02' W 071°37'0 0.0
2017-Nov-17 21:30S 33°02' W 071°37'0 0.0
2017-Nov-17 21:00S 33°02' W 071°37'0 0.0
2017-Nov-17 20:30S 33°02' W 071°37'0 0.0
2017-Nov-17 20:00S 33°02' W 071°37'0 0.0
2017-Nov-17 19:30S 33°02' W 071°37'0 0.0
2017-Nov-17 18:04S 33°02' W 071°37'0 0.1
2017-Nov-17 18:00S 33°02' W 071°37'0 0.0
2017-Nov-17 16:34S 33°02' W 071°37'0 0.2
2017-Nov-17 16:30S 33°02' W 071°37'0 0.0
2017-Nov-17 15:47S 33°02' W 071°37'0 0.0
2017-Nov-17 15:17S 33°02' W 071°37'0 0.0
2017-Nov-17 14:21S 33°02' W 071°37'0 0.0
2017-Nov-17 13:58S 33°02' W 071°37'0 0.0
2017-Nov-17 13:29S 33°02' W 071°37'0 0.0
2017-Nov-17 12:57S 33°02' W 071°37'0 0.0
2017-Nov-17 07:55S 33°02' W 071°37'0 0.0
2017-Nov-17 07:26S 33°02' W 071°37'0 0.0
2017-Nov-17 02:56S 33°02' W 071°37'0 0.0
2017-Nov-17 02:20S 33°02' W 071°37'4 4.8
2017-Nov-17 01:34S 32°59' W 071°36'1 9.6
2017-Nov-17 01:27S 32°58' W 071°36'4 9.4
2017-Nov-17 01:01S 32°54' W 071°36'5 9.1
2017-Nov-17 00:31S 32°49' W 071°36'5 8.9
2017-Nov-16 23:58S 32°44' W 071°36'  

Dump ship's entire track history